createdAt,value
2022-10-11T00:01:43.809Z,101886.06
2022-10-11T00:06:47.508Z,101895.28
2022-10-11T00:11:47.296Z,101885.00
2022-10-11T00:17:03.132Z,101878.50
2022-10-11T00:22:12.644Z,101854.75
2022-10-11T00:27:16.486Z,101856.56
2022-10-11T00:32:19.841Z,101849.00
2022-10-11T00:37:28.532Z,101858.06
2022-10-11T00:42:29.549Z,101848.91
2022-10-11T00:48:22.833Z,101826.31
2022-10-11T00:53:22.963Z,101832.69
2022-10-11T00:58:50.795Z,101841.94
2022-10-11T01:04:24.757Z,101824.47
2022-10-11T01:09:42.374Z,101816.50
2022-10-11T01:27:22.417Z,101825.38
2022-10-11T01:32:49.131Z,101841.91
2022-10-11T01:38:35.829Z,101833.53
2022-10-11T01:43:40.425Z,101829.00
2022-10-11T01:49:00.359Z,101796.81
2022-10-11T01:54:04.285Z,101793.59
2022-10-11T01:59:23.807Z,101813.50
2022-10-11T02:04:38.301Z,101796.59
2022-10-11T02:09:45.890Z,101821.41
2022-10-11T02:14:47.991Z,101809.47
2022-10-11T02:19:49.943Z,101774.75
2022-10-11T02:24:51.057Z,101790.31
2022-10-11T02:29:51.906Z,101767.47
2022-10-11T02:34:54.455Z,101770.41
2022-10-11T02:40:27.673Z,101781.16
2022-10-11T02:45:40.339Z,101817.69
2022-10-11T02:50:40.551Z,101774.88
2022-10-11T02:55:42.886Z,101796.47
2022-10-11T03:00:41.609Z,101778.03
2022-10-11T03:05:44.165Z,101766.94
2022-10-11T03:10:45.796Z,101781.50
2022-10-11T03:16:02.792Z,101751.94
2022-10-11T03:21:09.717Z,101776.47
2022-10-11T03:26:09.986Z,101773.19
2022-10-11T03:31:10.197Z,101776.78
2022-10-11T03:36:09.269Z,101801.53
2022-10-11T03:41:10.519Z,101797.16
2022-10-11T03:46:09.491Z,101793.16
2022-10-11T03:51:13.447Z,101752.44
2022-10-11T03:56:15.396Z,101794.06
2022-10-11T04:01:17.259Z,101777.00
2022-10-11T04:06:16.446Z,101751.81
2022-10-11T04:11:20.276Z,101777.25
2022-10-11T04:16:18.323Z,101785.16
2022-10-11T04:21:22.383Z,101787.56
2022-10-11T04:26:20.744Z,101788.66
2022-10-11T04:31:21.809Z,101770.34
2022-10-11T04:36:23.877Z,101749.44
2022-10-11T04:41:22.519Z,101756.88
2022-10-11T04:46:25.507Z,101767.00
2022-10-11T04:51:34.174Z,101764.97
2022-10-11T04:56:33.884Z,101765.00
2022-10-11T05:01:32.400Z,101771.31
2022-10-11T05:06:30.725Z,101755.81
2022-10-11T05:11:29.359Z,101791.47
2022-10-11T05:16:33.912Z,101761.56
2022-10-11T05:21:33.650Z,101800.91
2022-10-11T05:26:32.347Z,101779.00
2022-10-11T05:31:33.583Z,101778.50
2022-10-11T05:36:33.785Z,101777.81
2022-10-11T05:41:33.993Z,101803.63
2022-10-11T05:46:35.760Z,101761.44
2022-10-11T05:51:37.997Z,101783.28
2022-10-11T05:56:39.331Z,101788.84
2022-10-11T06:01:40.067Z,101791.16
2022-10-11T06:06:40.723Z,101742.75
2022-10-11T06:11:38.536Z,101774.97
2022-10-11T06:16:38.187Z,101774.94
2022-10-11T06:21:36.834Z,101771.88
2022-10-11T06:26:37.945Z,101806.69
2022-10-11T06:31:38.633Z,101786.75
2022-10-11T06:36:39.971Z,101786.47
2022-10-11T06:41:40.080Z,101789.72
2022-10-11T06:46:41.091Z,101808.34
2022-10-11T06:51:39.728Z,101808.47
2022-10-11T06:56:48.387Z,101832.19
2022-10-11T07:01:50.167Z,101807.59
2022-10-11T07:06:50.953Z,101813.03
2022-10-11T07:11:49.320Z,101811.19
2022-10-11T07:16:47.974Z,101799.19
2022-10-11T07:21:49.734Z,101809.00
2022-10-11T07:26:50.942Z,101815.25
2022-10-11T07:31:49.660Z,101805.75
2022-10-11T07:36:51.672Z,101796.84
2022-10-11T07:41:53.462Z,101783.03
2022-10-11T07:46:52.886Z,101803.97
2022-10-11T07:51:55.305Z,101795.97
2022-10-11T07:56:57.036Z,101809.16
2022-10-11T08:01:56.249Z,101817.94
2022-10-11T08:06:55.648Z,101805.22
2022-10-11T08:11:56.631Z,101824.31
2022-10-11T08:16:57.368Z,101821.91
2022-10-11T08:21:59.670Z,101792.16
2022-10-11T08:26:59.458Z,101789.38
2022-10-11T08:31:58.566Z,101786.06
2022-10-11T08:36:57.261Z,101809.28
2022-10-11T08:42:03.453Z,101784.06
2022-10-11T08:47:28.019Z,101782.88
2022-10-11T08:52:45.354Z,101792.03
2022-10-11T08:57:49.100Z,101813.56
2022-10-11T09:03:18.806Z,101807.81
2022-10-11T09:08:46.607Z,101808.06
2022-10-11T09:14:06.801Z,101782.03
2022-10-11T09:19:28.685Z,101802.84
2022-10-11T09:24:40.810Z,101768.16
2022-10-11T09:30:04.101Z,101810.41
2022-10-11T09:35:15.767Z,101787.66
2022-10-11T09:40:32.978Z,101787.47
2022-10-11T09:45:36.532Z,101774.03
2022-10-11T09:50:35.631Z,101791.03
2022-10-11T09:55:58.045Z,101801.03
2022-10-11T10:01:14.591Z,101771.16
2022-10-11T10:06:16.116Z,101768.44
2022-10-11T10:11:15.714Z,101780.47
2022-10-11T10:16:30.307Z,101758.75
2022-10-11T10:21:30.250Z,101778.88
2022-10-11T10:26:34.796Z,101755.09
2022-10-11T10:32:13.023Z,101765.63
2022-10-11T10:37:30.558Z,101765.69
2022-10-11T10:42:29.575Z,101732.19
2022-10-11T10:47:56.275Z,101746.31
2022-10-11T10:53:31.394Z,101744.25
2022-10-11T10:58:28.759Z,101741.25
2022-10-11T11:03:44.805Z,101701.66
2022-10-11T11:08:55.819Z,101707.38
2022-10-11T11:14:02.499Z,101735.34
2022-10-11T11:19:17.792Z,101714.75
2022-10-11T11:24:35.322Z,101706.34
2022-10-11T11:29:55.555Z,101710.69
2022-10-11T11:35:04.930Z,101700.66
2022-10-11T11:40:15.161Z,101680.72
2022-10-11T11:45:40.955Z,101681.34
2022-10-11T11:50:43.970Z,101681.34
2022-10-11T11:56:14.044Z,101680.91
2022-10-11T12:01:34.414Z,101694.59
2022-10-11T12:06:37.889Z,101676.44
2022-10-11T12:11:38.655Z,101692.75
2022-10-11T12:17:07.890Z,101677.47
2022-10-11T12:22:39.785Z,101653.81
2022-10-11T12:27:41.848Z,101679.53
2022-10-11T12:32:41.203Z,101687.44
2022-10-11T12:37:41.707Z,101690.09
2022-10-11T12:42:40.036Z,101669.91
2022-10-11T12:48:06.390Z,101650.53
2022-10-11T12:53:28.040Z,101659.91
2022-10-11T12:58:46.555Z,101673.81
2022-10-11T13:03:59.577Z,101662.75
2022-10-11T13:09:23.436Z,101647.00
2022-10-11T13:14:24.664Z,101649.91
2022-10-11T13:19:24.213Z,101630.16
2022-10-11T13:24:27.043Z,101626.94
2022-10-11T13:29:40.071Z,101631.00
2022-10-11T13:34:40.661Z,101634.47
2022-10-11T13:39:39.332Z,101634.28
2022-10-11T13:44:41.411Z,101629.34
2022-10-11T13:50:03.045Z,101629.78
2022-10-11T13:55:04.975Z,101647.31
2022-10-11T14:00:21.967Z,101645.63
2022-10-11T14:05:35.641Z,101645.00
2022-10-11T14:10:34.693Z,101623.59
2022-10-11T14:15:37.684Z,101622.81
2022-10-11T14:20:37.657Z,101643.22
2022-10-11T14:25:35.383Z,101628.13
2022-10-11T14:30:36.355Z,101609.59
2022-10-11T14:35:36.592Z,101615.53
2022-10-11T14:40:34.466Z,101614.09
2022-10-11T14:45:32.877Z,101604.34
2022-10-11T14:50:38.446Z,101631.22
2022-10-11T14:55:40.764Z,101628.75
2022-10-11T15:00:38.675Z,101604.53
2022-10-11T15:05:39.164Z,101611.81
2022-10-11T15:10:42.098Z,101637.47
2022-10-11T15:15:45.705Z,101618.41
2022-10-11T15:20:45.608Z,101613.69
2022-10-11T15:25:43.907Z,101623.06
2022-10-11T15:30:42.202Z,101636.63
2022-10-11T15:35:42.529Z,101635.38
2022-10-11T15:40:46.794Z,101621.31
2022-10-11T15:45:48.296Z,101619.78
2022-10-11T15:50:46.746Z,101646.31
2022-10-11T15:55:47.697Z,101662.00
2022-10-11T16:00:50.746Z,101623.81
2022-10-11T16:05:54.965Z,101644.09
2022-10-11T16:10:56.471Z,101660.31
2022-10-11T16:15:57.623Z,101651.56
2022-10-11T16:20:56.412Z,101681.63
2022-10-11T16:26:01.862Z,101637.59
2022-10-11T16:30:59.510Z,101653.75
2022-10-11T16:36:18.664Z,101664.06
2022-10-11T16:41:17.012Z,101659.84
2022-10-11T16:46:15.483Z,101692.44
2022-10-11T16:51:14.966Z,101686.75
2022-10-11T16:56:13.785Z,101685.53
2022-10-11T17:01:17.611Z,101672.16
2022-10-11T17:06:16.431Z,101688.47
2022-10-11T17:11:17.838Z,101669.13
2022-10-11T17:16:17.450Z,101673.59
2022-10-11T17:21:19.351Z,101654.44
2022-10-11T17:26:24.158Z,101682.19
2022-10-11T17:31:26.595Z,101675.41
2022-10-11T17:36:35.321Z,101679.06
2022-10-11T17:41:40.729Z,101688.13
2022-10-11T17:46:39.165Z,101681.72
2022-10-11T17:51:37.617Z,101678.03
2022-10-11T17:56:39.370Z,101683.75
2022-10-11T18:01:41.813Z,101691.56
2022-10-11T18:06:48.108Z,101676.81
2022-10-11T18:11:50.278Z,101699.91
2022-10-11T18:16:51.011Z,101713.53
2022-10-11T18:21:52.781Z,101676.34
2022-10-11T18:26:53.106Z,101698.78
2022-10-11T18:31:54.181Z,101688.22
2022-10-11T18:37:05.120Z,101694.78
2022-10-11T18:42:13.778Z,101698.81
2022-10-11T18:47:23.519Z,101688.47
2022-10-11T18:52:24.838Z,101682.44
2022-10-11T18:58:12.588Z,101681.94
2022-10-11T19:03:15.673Z,101669.16
2022-10-11T19:08:14.758Z,101688.72
2022-10-11T19:13:45.191Z,101699.72
2022-10-11T19:19:05.517Z,101697.97
2022-10-11T19:24:09.301Z,101706.03
2022-10-11T19:29:31.544Z,101722.66
2022-10-11T19:34:31.903Z,101727.31
2022-10-11T19:39:30.044Z,101706.03
2022-10-11T19:44:29.153Z,101714.03
2022-10-11T19:49:33.987Z,101727.72
2022-10-11T19:54:34.867Z,101712.50
2022-10-11T19:59:34.188Z,101712.78
2022-10-11T20:04:51.689Z,101725.88
2022-10-11T20:09:54.721Z,101712.88
2022-10-11T20:14:53.502Z,101699.53
2022-10-11T20:20:04.419Z,101722.53
2022-10-11T20:25:06.531Z,101709.06
2022-10-11T20:30:17.021Z,101730.72
2022-10-11T20:35:16.044Z,101694.78
2022-10-11T20:40:14.678Z,101693.38
2022-10-11T20:45:15.771Z,101725.44
2022-10-11T20:50:13.179Z,101707.09
2022-10-11T20:55:11.677Z,101713.38
2022-10-11T21:00:13.798Z,101725.56
2022-10-11T21:05:14.747Z,101695.09
2022-10-11T21:10:15.323Z,101709.41
2022-10-11T21:15:13.754Z,101686.13
2022-10-11T21:20:12.706Z,101721.56
2022-10-11T21:30:23.668Z,101709.31
2022-10-11T21:35:22.019Z,101704.88
2022-10-11T21:40:24.014Z,101703.50
2022-10-11T21:45:22.314Z,101710.69
2022-10-11T21:50:23.028Z,101693.94
2022-10-11T21:55:21.764Z,101702.16
2022-10-11T22:00:20.180Z,101680.75
2022-10-11T22:05:23.907Z,101712.59
2022-10-11T22:10:25.274Z,101719.44
2022-10-11T22:15:25.517Z,101679.25
2022-10-11T22:20:24.953Z,101722.53
2022-10-11T22:25:26.389Z,101731.88
2022-10-11T22:30:27.435Z,101730.53
2022-10-11T22:35:26.727Z,101726.59
2022-10-11T22:40:25.792Z,101732.91
2022-10-11T22:45:27.656Z,101750.00
2022-10-11T22:50:28.820Z,101701.69
2022-10-11T22:55:28.018Z,101722.38
2022-10-11T23:00:29.708Z,101724.75
2022-10-11T23:05:31.263Z,101750.97
2022-10-11T23:10:33.494Z,101741.00
2022-10-11T23:15:35.298Z,101760.69
2022-10-11T23:20:55.401Z,101715.81
2022-10-11T23:26:11.710Z,101732.47
2022-10-11T23:31:21.040Z,101743.75
2022-10-11T23:36:25.677Z,101738.81
2022-10-11T23:41:25.898Z,101764.19
2022-10-11T23:46:25.997Z,101746.53
2022-10-11T23:51:26.268Z,101743.53
2022-10-11T23:56:27.693Z,101757.44
